sensor_id;sensor_type;location;lat;lon;timestamp;P1;durP1;ratioP1;P2;durP2;ratioP2
37321;SDS011;23697;48.684;9.032;2022-07-23T00:01:45;7.97;;;4.18;;
37321;SDS011;23697;48.684;9.032;2022-07-23T00:04:12;5.82;;;3.67;;
37321;SDS011;23697;48.684;9.032;2022-07-23T00:06:41;6.32;;;3.95;;
37321;SDS011;23697;48.684;9.032;2022-07-23T00:09:08;5.85;;;4.03;;
37321;SDS011;23697;48.684;9.032;2022-07-23T00:11:35;8.50;;;4.03;;
37321;SDS011;23697;48.684;9.032;2022-07-23T00:14:02;6.50;;;3.80;;
37321;SDS011;23697;48.684;9.032;2022-07-23T00:16:29;7.53;;;3.80;;
37321;SDS011;23697;48.684;9.032;2022-07-23T00:18:55;5.65;;;3.95;;
37321;SDS011;23697;48.684;9.032;2022-07-23T00:21:22;5.13;;;4.10;;
37321;SDS011;23697;48.684;9.032;2022-07-23T00:23:51;5.95;;;3.83;;
37321;SDS011;23697;48.684;9.032;2022-07-23T00:26:18;7.85;;;4.03;;
37321;SDS011;23697;48.684;9.032;2022-07-23T00:28:45;8.30;;;3.90;;
37321;SDS011;23697;48.684;9.032;2022-07-23T00:31:11;7.30;;;4.00;;
37321;SDS011;23697;48.684;9.032;2022-07-23T00:33:38;5.55;;;3.97;;
37321;SDS011;23697;48.684;9.032;2022-07-23T00:36:06;5.38;;;4.10;;
37321;SDS011;23697;48.684;9.032;2022-07-23T00:38:33;5.72;;;4.10;;
37321;SDS011;23697;48.684;9.032;2022-07-23T00:41:01;5.18;;;4.10;;
37321;SDS011;23697;48.684;9.032;2022-07-23T00:43:28;6.18;;;4.10;;
37321;SDS011;23697;48.684;9.032;2022-07-23T00:45:55;6.50;;;4.15;;
37321;SDS011;23697;48.684;9.032;2022-07-23T00:48:22;4.82;;;4.00;;
37321;SDS011;23697;48.684;9.032;2022-07-23T00:50:52;6.45;;;4.07;;
37321;SDS011;23697;48.684;9.032;2022-07-23T00:53:19;5.50;;;3.92;;
37321;SDS011;23697;48.684;9.032;2022-07-23T00:55:46;5.68;;;4.10;;
37321;SDS011;23697;48.684;9.032;2022-07-23T00:58:15;7.45;;;4.10;;
37321;SDS011;23697;48.684;9.032;2022-07-23T01:00:42;5.80;;;3.97;;
37321;SDS011;23697;48.684;9.032;2022-07-23T01:03:09;6.63;;;4.28;;
37321;SDS011;23697;48.684;9.032;2022-07-23T01:05:36;7.15;;;3.80;;
37321;SDS011;23697;48.684;9.032;2022-07-23T01:08:04;5.63;;;3.78;;
37321;SDS011;23697;48.684;9.032;2022-07-23T01:10:32;5.47;;;3.90;;
37321;SDS011;23697;48.684;9.032;2022-07-23T01:13:02;5.72;;;4.00;;
37321;SDS011;23697;48.684;9.032;2022-07-23T01:15:32;5.95;;;4.38;;
37321;SDS011;23697;48.684;9.032;2022-07-23T01:18:00;5.75;;;3.97;;
37321;SDS011;23697;48.684;9.032;2022-07-23T01:20:28;6.03;;;3.83;;
37321;SDS011;23697;48.684;9.032;2022-07-23T01:22:56;4.32;;;3.60;;
37321;SDS011;23697;48.684;9.032;2022-07-23T01:25:23;5.35;;;3.70;;
37321;SDS011;23697;48.684;9.032;2022-07-23T01:27:51;6.00;;;3.92;;
37321;SDS011;23697;48.684;9.032;2022-07-23T01:30:20;5.95;;;3.65;;
37321;SDS011;23697;48.684;9.032;2022-07-23T01:32:47;6.70;;;4.03;;
37321;SDS011;23697;48.684;9.032;2022-07-23T01:35:14;5.07;;;3.63;;
37321;SDS011;23697;48.684;9.032;2022-07-23T01:37:41;5.53;;;4.18;;
37321;SDS011;23697;48.684;9.032;2022-07-23T01:40:09;6.05;;;4.13;;
37321;SDS011;23697;48.684;9.032;2022-07-23T01:42:36;6.65;;;3.92;;
37321;SDS011;23697;48.684;9.032;2022-07-23T01:45:06;6.40;;;4.10;;
37321;SDS011;23697;48.684;9.032;2022-07-23T01:47:33;5.82;;;3.90;;
37321;SDS011;23697;48.684;9.032;2022-07-23T01:50:00;7.18;;;4.10;;
37321;SDS011;23697;48.684;9.032;2022-07-23T01:52:27;5.80;;;3.88;;
37321;SDS011;23697;48.684;9.032;2022-07-23T01:54:54;6.97;;;3.83;;
37321;SDS011;23697;48.684;9.032;2022-07-23T01:57:22;6.00;;;4.00;;
37321;SDS011;23697;48.684;9.032;2022-07-23T01:59:49;5.45;;;4.07;;
37321;SDS011;23697;48.684;9.032;2022-07-23T02:02:16;6.35;;;4.05;;
37321;SDS011;23697;48.684;9.032;2022-07-23T02:04:43;6.22;;;4.05;;
37321;SDS011;23697;48.684;9.032;2022-07-23T02:07:10;6.13;;;3.92;;
37321;SDS011;23697;48.684;9.032;2022-07-23T02:09:37;6.28;;;4.00;;
37321;SDS011;23697;48.684;9.032;2022-07-23T02:12:04;5.85;;;3.70;;
37321;SDS011;23697;48.684;9.032;2022-07-23T02:14:33;8.15;;;4.00;;
37321;SDS011;23697;48.684;9.032;2022-07-23T02:17:00;6.07;;;4.10;;
37321;SDS011;23697;48.684;9.032;2022-07-23T02:19:27;5.65;;;3.60;;
37321;SDS011;23697;48.684;9.032;2022-07-23T02:21:54;6.25;;;4.10;;
37321;SDS011;23697;48.684;9.032;2022-07-23T02:24:21;6.00;;;3.95;;
37321;SDS011;23697;48.684;9.032;2022-07-23T02:26:48;4.93;;;3.75;;
37321;SDS011;23697;48.684;9.032;2022-07-23T02:29:15;5.90;;;3.75;;
37321;SDS011;23697;48.684;9.032;2022-07-23T02:31:43;5.03;;;4.18;;
37321;SDS011;23697;48.684;9.032;2022-07-23T02:34:11;6.80;;;3.90;;
37321;SDS011;23697;48.684;9.032;2022-07-23T02:36:38;6.10;;;4.25;;
37321;SDS011;23697;48.684;9.032;2022-07-23T02:39:05;4.60;;;3.67;;
37321;SDS011;23697;48.684;9.032;2022-07-23T02:41:32;6.97;;;4.07;;
37321;SDS011;23697;48.684;9.032;2022-07-23T02:43:59;7.07;;;4.30;;
37321;SDS011;23697;48.684;9.032;2022-07-23T02:46:26;5.20;;;3.67;;
37321;SDS011;23697;48.684;9.032;2022-07-23T02:48:55;7.22;;;4.40;;
37321;SDS011;23697;48.684;9.032;2022-07-23T02:51:22;5.97;;;4.40;;
37321;SDS011;23697;48.684;9.032;2022-07-23T02:53:48;5.25;;;3.80;;
37321;SDS011;23697;48.684;9.032;2022-07-23T02:56:15;5.47;;;4.10;;
37321;SDS011;23697;48.684;9.032;2022-07-23T02:58:42;6.78;;;4.10;;
37321;SDS011;23697;48.684;9.032;2022-07-23T03:01:09;4.70;;;4.00;;
37321;SDS011;23697;48.684;9.032;2022-07-23T03:03:36;6.50;;;4.13;;
37321;SDS011;23697;48.684;9.032;2022-07-23T03:06:04;7.00;;;4.35;;
37321;SDS011;23697;48.684;9.032;2022-07-23T03:08:32;4.75;;;3.92;;
37321;SDS011;23697;48.684;9.032;2022-07-23T03:10:59;6.63;;;4.57;;
37321;SDS011;23697;48.684;9.032;2022-07-23T03:13:26;6.07;;;4.13;;
37321;SDS011;23697;48.684;9.032;2022-07-23T03:15:54;5.72;;;4.22;;
37321;SDS011;23697;48.684;9.032;2022-07-23T03:18:21;5.72;;;4.25;;
37321;SDS011;23697;48.684;9.032;2022-07-23T03:20:48;6.05;;;4.38;;
37321;SDS011;23697;48.684;9.032;2022-07-23T03:23:17;5.45;;;4.13;;
37321;SDS011;23697;48.684;9.032;2022-07-23T03:25:43;5.55;;;4.15;;
37321;SDS011;23697;48.684;9.032;2022-07-23T03:28:11;6.75;;;4.32;;
37321;SDS011;23697;48.684;9.032;2022-07-23T03:30:38;5.38;;;4.30;;
37321;SDS011;23697;48.684;9.032;2022-07-23T03:33:05;6.45;;;3.97;;
37321;SDS011;23697;48.684;9.032;2022-07-23T03:35:35;5.50;;;4.20;;
37321;SDS011;23697;48.684;9.032;2022-07-23T03:38:02;5.57;;;4.30;;
37321;SDS011;23697;48.684;9.032;2022-07-23T03:40:30;7.00;;;4.15;;
37321;SDS011;23697;48.684;9.032;2022-07-23T03:42:57;6.57;;;4.30;;
37321;SDS011;23697;48.684;9.032;2022-07-23T03:45:24;5.85;;;4.20;;
37321;SDS011;23697;48.684;9.032;2022-07-23T03:47:51;7.05;;;4.50;;
37321;SDS011;23697;48.684;9.032;2022-07-23T03:50:18;5.80;;;4.40;;
37321;SDS011;23697;48.684;9.032;2022-07-23T03:52:45;5.88;;;4.22;;
37321;SDS011;23697;48.684;9.032;2022-07-23T03:55:12;6.40;;;4.35;;
37321;SDS011;23697;48.684;9.032;2022-07-23T03:57:41;6.10;;;4.47;;
37321;SDS011;23697;48.684;9.032;2022-07-23T04:00:09;5.90;;;4.43;;
37321;SDS011;23697;48.684;9.032;2022-07-23T04:02:38;6.68;;;4.32;;
37321;SDS011;23697;48.684;9.032;2022-07-23T04:05:06;6.13;;;4.50;;
37321;SDS011;23697;48.684;9.032;2022-07-23T04:07:33;5.75;;;4.40;;
37321;SDS011;23697;48.684;9.032;2022-07-23T04:10:00;6.00;;;4.25;;
37321;SDS011;23697;48.684;9.032;2022-07-23T04:12:27;5.80;;;4.50;;
37321;SDS011;23697;48.684;9.032;2022-07-23T04:14:55;5.80;;;4.30;;
37321;SDS011;23697;48.684;9.032;2022-07-23T04:17:22;6.32;;;4.50;;
37321;SDS011;23697;48.684;9.032;2022-07-23T04:19:50;6.20;;;4.40;;
37321;SDS011;23697;48.684;9.032;2022-07-23T04:22:17;7.28;;;4.40;;
37321;SDS011;23697;48.684;9.032;2022-07-23T04:24:44;6.13;;;4.03;;
37321;SDS011;23697;48.684;9.032;2022-07-23T04:27:11;6.80;;;4.47;;
37321;SDS011;23697;48.684;9.032;2022-07-23T04:29:38;6.70;;;4.38;;
37321;SDS011;23697;48.684;9.032;2022-07-23T04:32:09;6.78;;;4.53;;
37321;SDS011;23697;48.684;9.032;2022-07-23T04:34:36;7.40;;;4.40;;
37321;SDS011;23697;48.684;9.032;2022-07-23T04:37:06;7.75;;;4.63;;
37321;SDS011;23697;48.684;9.032;2022-07-23T04:39:32;7.53;;;4.80;;
37321;SDS011;23697;48.684;9.032;2022-07-23T04:41:59;5.82;;;4.53;;
37321;SDS011;23697;48.684;9.032;2022-07-23T04:44:26;7.47;;;4.65;;
37321;SDS011;23697;48.684;9.032;2022-07-23T04:46:53;6.70;;;4.63;;
37321;SDS011;23697;48.684;9.032;2022-07-23T04:49:21;7.10;;;4.50;;
37321;SDS011;23697;48.684;9.032;2022-07-23T04:51:49;6.90;;;4.32;;
37321;SDS011;23697;48.684;9.032;2022-07-23T04:54:15;6.13;;;4.60;;
37321;SDS011;23697;48.684;9.032;2022-07-23T04:56:43;5.70;;;4.30;;
37321;SDS011;23697;48.684;9.032;2022-07-23T04:59:10;6.35;;;4.30;;
37321;SDS011;23697;48.684;9.032;2022-07-23T05:04:24;6.60;;;4.78;;
37321;SDS011;23697;48.684;9.032;2022-07-23T05:06:51;8.45;;;4.82;;
37321;SDS011;23697;48.684;9.032;2022-07-23T05:09:17;5.57;;;4.45;;
37321;SDS011;23697;48.684;9.032;2022-07-23T05:11:44;6.05;;;4.78;;
37321;SDS011;23697;48.684;9.032;2022-07-23T05:14:11;7.55;;;4.68;;
37321;SDS011;23697;48.684;9.032;2022-07-23T05:16:38;5.95;;;5.00;;
37321;SDS011;23697;48.684;9.032;2022-07-23T05:19:06;5.97;;;4.68;;
37321;SDS011;23697;48.684;9.032;2022-07-23T05:21:34;5.95;;;4.97;;
37321;SDS011;23697;48.684;9.032;2022-07-23T05:24:01;7.10;;;5.10;;
37321;SDS011;23697;48.684;9.032;2022-07-23T05:26:28;7.50;;;4.95;;
37321;SDS011;23697;48.684;9.032;2022-07-23T05:28:55;6.80;;;5.13;;
37321;SDS011;23697;48.684;9.032;2022-07-23T05:31:22;6.05;;;4.70;;
37321;SDS011;23697;48.684;9.032;2022-07-23T05:33:49;6.63;;;4.88;;
37321;SDS011;23697;48.684;9.032;2022-07-23T05:36:16;8.50;;;4.97;;
37321;SDS011;23697;48.684;9.032;2022-07-23T05:38:44;6.90;;;4.53;;
37321;SDS011;23697;48.684;9.032;2022-07-23T05:41:11;7.40;;;5.03;;
37321;SDS011;23697;48.684;9.032;2022-07-23T05:43:52;7.22;;;4.90;;
37321;SDS011;23697;48.684;9.032;2022-07-23T05:46:22;6.63;;;4.72;;
37321;SDS011;23697;48.684;9.032;2022-07-23T05:48:49;7.93;;;5.03;;
37321;SDS011;23697;48.684;9.032;2022-07-23T05:51:18;6.53;;;5.00;;
37321;SDS011;23697;48.684;9.032;2022-07-23T05:53:47;7.25;;;5.25;;
37321;SDS011;23697;48.684;9.032;2022-07-23T05:56:14;6.80;;;5.10;;
37321;SDS011;23697;48.684;9.032;2022-07-23T05:58:41;7.28;;;5.70;;
37321;SDS011;23697;48.684;9.032;2022-07-23T06:01:09;6.45;;;5.10;;
37321;SDS011;23697;48.684;9.032;2022-07-23T06:03:36;8.30;;;5.15;;
37321;SDS011;23697;48.684;9.032;2022-07-23T06:06:04;6.50;;;5.30;;
37321;SDS011;23697;48.684;9.032;2022-07-23T06:08:31;573.25;;;51.45;;
37321;SDS011;23697;48.684;9.032;2022-07-23T06:10:59;651.13;;;387.05;;
37321;SDS011;23697;48.684;9.032;2022-07-23T06:13:26;8.32;;;5.25;;
37321;SDS011;23697;48.684;9.032;2022-07-23T06:15:53;8.57;;;4.78;;
37321;SDS011;23697;48.684;9.032;2022-07-23T06:18:22;9.35;;;6.28;;
37321;SDS011;23697;48.684;9.032;2022-07-23T06:20:50;78.03;;;10.50;;
37321;SDS011;23697;48.684;9.032;2022-07-23T06:23:18;59.75;;;56.03;;
37321;SDS011;23697;48.684;9.032;2022-07-23T06:25:45;1999.90;;;999.90;;
37321;SDS011;23697;48.684;9.032;2022-07-23T06:28:13;75.53;;;70.88;;
37321;SDS011;23697;48.684;9.032;2022-07-23T06:30:40;9.48;;;8.20;;
37321;SDS011;23697;48.684;9.032;2022-07-23T06:33:07;38.13;;;8.48;;
37321;SDS011;23697;48.684;9.032;2022-07-23T06:35:39;117.80;;;110.97;;
37321;SDS011;23697;48.684;9.032;2022-07-23T06:38:06;1999.90;;;999.90;;
37321;SDS011;23697;48.684;9.032;2022-07-23T06:40:33;31.10;;;28.90;;
37321;SDS011;23697;48.684;9.032;2022-07-23T06:43:01;10.48;;;6.93;;
37321;SDS011;23697;48.684;9.032;2022-07-23T06:45:30;9.05;;;6.68;;
37321;SDS011;23697;48.684;9.032;2022-07-23T06:47:57;10.52;;;7.03;;
37321;SDS011;23697;48.684;9.032;2022-07-23T06:50:24;9.70;;;6.60;;
37321;SDS011;23697;48.684;9.032;2022-07-23T06:52:57;7.88;;;6.47;;
37321;SDS011;23697;48.684;9.032;2022-07-23T06:55:24;248.32;;;26.05;;
37321;SDS011;23697;48.684;9.032;2022-07-23T06:57:53;10.05;;;6.40;;
37321;SDS011;23697;48.684;9.032;2022-07-23T07:00:20;89.22;;;11.13;;
37321;SDS011;23697;48.684;9.032;2022-07-23T07:02:48;8.90;;;6.22;;
37321;SDS011;23697;48.684;9.032;2022-07-23T07:05:18;7.70;;;6.20;;
37321;SDS011;23697;48.684;9.032;2022-07-23T07:07:45;444.38;;;40.97;;
37321;SDS011;23697;48.684;9.032;2022-07-23T07:10:11;9.48;;;5.70;;
37321;SDS011;23697;48.684;9.032;2022-07-23T07:12:38;7.57;;;5.95;;
37321;SDS011;23697;48.684;9.032;2022-07-23T07:15:05;8.48;;;5.82;;
37321;SDS011;23697;48.684;9.032;2022-07-23T07:17:33;1999.90;;;999.90;;
37321;SDS011;23697;48.684;9.032;2022-07-23T07:20:01;6.68;;;5.03;;
37321;SDS011;23697;48.684;9.032;2022-07-23T07:22:31;53.20;;;9.93;;
37321;SDS011;23697;48.684;9.032;2022-07-23T07:25:01;1014.42;;;51.63;;
37321;SDS011;23697;48.684;9.032;2022-07-23T07:27:27;646.42;;;52.05;;
37321;SDS011;23697;48.684;9.032;2022-07-23T07:29:54;639.13;;;50.17;;
37321;SDS011;23697;48.684;9.032;2022-07-23T07:32:21;53.47;;;20.98;;
37321;SDS011;23697;48.684;9.032;2022-07-23T07:34:48;114.53;;;20.52;;
37321;SDS011;23697;48.684;9.032;2022-07-23T07:37:16;7.88;;;6.53;;
37321;SDS011;23697;48.684;9.032;2022-07-23T07:39:43;6.85;;;5.63;;
37321;SDS011;23697;48.684;9.032;2022-07-23T07:42:10;6.43;;;4.53;;
37321;SDS011;23697;48.684;9.032;2022-07-23T07:44:37;8.48;;;4.40;;
37321;SDS011;23697;48.684;9.032;2022-07-23T07:47:07;8.00;;;6.35;;
37321;SDS011;23697;48.684;9.032;2022-07-23T07:49:34;6.53;;;4.47;;
37321;SDS011;23697;48.684;9.032;2022-07-23T07:52:02;6.63;;;4.70;;
37321;SDS011;23697;48.684;9.032;2022-07-23T07:54:33;75.90;;;17.60;;
37321;SDS011;23697;48.684;9.032;2022-07-23T07:57:02;7.88;;;5.25;;
37321;SDS011;23697;48.684;9.032;2022-07-23T07:59:29;9.45;;;5.30;;
37321;SDS011;23697;48.684;9.032;2022-07-23T08:01:56;7.85;;;5.10;;
37321;SDS011;23697;48.684;9.032;2022-07-23T08:04:23;10.00;;;5.20;;
37321;SDS011;23697;48.684;9.032;2022-07-23T08:06:50;7.07;;;5.05;;
37321;SDS011;23697;48.684;9.032;2022-07-23T08:09:17;7.70;;;5.35;;
37321;SDS011;23697;48.684;9.032;2022-07-23T08:11:47;7.57;;;5.35;;
37321;SDS011;23697;48.684;9.032;2022-07-23T08:14:16;75.72;;;41.55;;
37321;SDS011;23697;48.684;9.032;2022-07-23T08:16:43;17.98;;;10.20;;
37321;SDS011;23697;48.684;9.032;2022-07-23T08:19:10;432.60;;;40.50;;
37321;SDS011;23697;48.684;9.032;2022-07-23T08:21:37;1503.05;;;752.58;;
37321;SDS011;23697;48.684;9.032;2022-07-23T08:24:08;1999.90;;;999.90;;
37321;SDS011;23697;48.684;9.032;2022-07-23T08:26:36;318.55;;;73.80;;
37321;SDS011;23697;48.684;9.032;2022-07-23T08:29:08;5.65;;;3.63;;
37321;SDS011;23697;48.684;9.032;2022-07-23T08:31:35;5.53;;;3.22;;
37321;SDS011;23697;48.684;9.032;2022-07-23T08:34:02;580.45;;;61.85;;
37321;SDS011;23697;48.684;9.032;2022-07-23T08:36:29;1999.90;;;999.90;;
37321;SDS011;23697;48.684;9.032;2022-07-23T08:38:57;1999.90;;;999.90;;
37321;SDS011;23697;48.684;9.032;2022-07-23T08:41:24;1999.90;;;999.90;;
37321;SDS011;23697;48.684;9.032;2022-07-23T08:43:53;1999.90;;;999.90;;
37321;SDS011;23697;48.684;9.032;2022-07-23T08:46:21;1999.90;;;999.90;;
37321;SDS011;23697;48.684;9.032;2022-07-23T08:48:50;747.27;;;347.23;;
37321;SDS011;23697;48.684;9.032;2022-07-23T08:51:17;1999.90;;;999.90;;
37321;SDS011;23697;48.684;9.032;2022-07-23T08:53:44;1999.90;;;999.90;;
37321;SDS011;23697;48.684;9.032;2022-07-23T08:56:12;1149.50;;;552.25;;
37321;SDS011;23697;48.684;9.032;2022-07-23T08:58:39;1999.90;;;999.90;;
37321;SDS011;23697;48.684;9.032;2022-07-23T09:01:06;172.77;;;45.22;;
37321;SDS011;23697;48.684;9.032;2022-07-23T09:03:35;304.20;;;57.67;;
37321;SDS011;23697;48.684;9.032;2022-07-23T09:06:04;1999.90;;;999.90;;
37321;SDS011;23697;48.684;9.032;2022-07-23T09:08:35;1999.90;;;999.90;;
37321;SDS011;23697;48.684;9.032;2022-07-23T09:11:03;1999.90;;;999.90;;
37321;SDS011;23697;48.684;9.032;2022-07-23T09:16:04;925.13;;;822.28;;
37321;SDS011;23697;48.684;9.032;2022-07-23T09:18:35;5.75;;;5.20;;
37321;SDS011;23697;48.684;9.032;2022-07-23T09:21:05;6.32;;;3.40;;
37321;SDS011;23697;48.684;9.032;2022-07-23T09:23:36;6.63;;;3.65;;
37321;SDS011;23697;48.684;9.032;2022-07-23T09:29:00;1999.90;;;999.90;;
37321;SDS011;23697;48.684;9.032;2022-07-23T09:31:32;1999.90;;;999.90;;
37321;SDS011;23697;48.684;9.032;2022-07-23T09:34:08;1999.90;;;999.90;;
37321;SDS011;23697;48.684;9.032;2022-07-23T09:36:38;18.02;;;16.33;;
37321;SDS011;23697;48.684;9.032;2022-07-23T09:39:05;168.57;;;155.63;;
37321;SDS011;23697;48.684;9.032;2022-07-23T09:41:34;183.20;;;131.73;;
37321;SDS011;23697;48.684;9.032;2022-07-23T09:44:09;20.85;;;19.08;;
37321;SDS011;23697;48.684;9.032;2022-07-23T09:46:38;44.23;;;11.33;;
37321;SDS011;23697;48.684;9.032;2022-07-23T09:49:17;271.98;;;164.13;;
37321;SDS011;23697;48.684;9.032;2022-07-23T09:51:54;333.92;;;307.90;;
37321;SDS011;23697;48.684;9.032;2022-07-23T09:54:26;328.20;;;299.42;;
37321;SDS011;23697;48.684;9.032;2022-07-23T09:56:56;178.50;;;164.68;;
37321;SDS011;23697;48.684;9.032;2022-07-23T09:59:26;1721.40;;;781.05;;
37321;SDS011;23697;48.684;9.032;2022-07-23T10:01:54;419.13;;;34.42;;
37321;SDS011;23697;48.684;9.032;2022-07-23T10:06:53;749.75;;;41.70;;
37321;SDS011;23697;48.684;9.032;2022-07-23T10:09:23;8.23;;;6.10;;
37321;SDS011;23697;48.684;9.032;2022-07-23T10:11:51;9.55;;;6.20;;
37321;SDS011;23697;48.684;9.032;2022-07-23T10:14:26;8.10;;;5.80;;
37321;SDS011;23697;48.684;9.032;2022-07-23T10:16:56;8.23;;;5.97;;
37321;SDS011;23697;48.684;9.032;2022-07-23T10:19:23;9.55;;;5.65;;
37321;SDS011;23697;48.684;9.032;2022-07-23T10:21:55;7.07;;;5.50;;
37321;SDS011;23697;48.684;9.032;2022-07-23T10:24:30;10.10;;;5.97;;
37321;SDS011;23697;48.684;9.032;2022-07-23T10:27:37;7.97;;;5.45;;
37321;SDS011;23697;48.684;9.032;2022-07-23T10:30:32;7.82;;;5.53;;
37321;SDS011;23697;48.684;9.032;2022-07-23T10:33:24;7.00;;;5.50;;
37321;SDS011;23697;48.684;9.032;2022-07-23T10:35:58;7.93;;;5.90;;
37321;SDS011;23697;48.684;9.032;2022-07-23T10:38:30;7.72;;;5.15;;
37321;SDS011;23697;48.684;9.032;2022-07-23T10:41:04;7.22;;;5.30;;
37321;SDS011;23697;48.684;9.032;2022-07-23T10:43:31;8.00;;;5.40;;
37321;SDS011;23697;48.684;9.032;2022-07-23T10:58:10;6.18;;;5.00;;
37321;SDS011;23697;48.684;9.032;2022-07-23T11:00:44;6.60;;;5.00;;
37321;SDS011;23697;48.684;9.032;2022-07-23T11:06:03;5.68;;;3.60;;
37321;SDS011;23697;48.684;9.032;2022-07-23T11:08:31;5.38;;;3.70;;
37321;SDS011;23697;48.684;9.032;2022-07-23T11:11:12;564.05;;;118.70;;
37321;SDS011;23697;48.684;9.032;2022-07-23T11:13:43;1074.40;;;39.60;;
37321;SDS011;23697;48.684;9.032;2022-07-23T11:16:13;1126.15;;;65.38;;
37321;SDS011;23697;48.684;9.032;2022-07-23T11:19:06;385.73;;;31.67;;
37321;SDS011;23697;48.684;9.032;2022-07-23T11:21:47;89.60;;;9.32;;
37321;SDS011;23697;48.684;9.032;2022-07-23T11:24:36;5.85;;;4.35;;
37321;SDS011;23697;48.684;9.032;2022-07-23T11:27:20;79.82;;;7.75;;
37321;SDS011;23697;48.684;9.032;2022-07-23T11:30:07;1999.90;;;999.90;;
37321;SDS011;23697;48.684;9.032;2022-07-23T11:32:37;1999.90;;;999.90;;
37321;SDS011;23697;48.684;9.032;2022-07-23T11:38:02;1999.90;;;999.90;;
37321;SDS011;23697;48.684;9.032;2022-07-23T11:40:31;1999.90;;;999.90;;
37321;SDS011;23697;48.684;9.032;2022-07-23T11:53:03;1999.90;;;999.90;;
37321;SDS011;23697;48.684;9.032;2022-07-23T11:58:54;1999.90;;;999.90;;
37321;SDS011;23697;48.684;9.032;2022-07-23T12:05:11;1031.10;;;87.70;;
37321;SDS011;23697;48.684;9.032;2022-07-23T12:07:39;786.28;;;36.30;;
37321;SDS011;23697;48.684;9.032;2022-07-23T12:10:11;109.05;;;9.35;;
37321;SDS011;23697;48.684;9.032;2022-07-23T12:12:40;775.70;;;63.15;;
37321;SDS011;23697;48.684;9.032;2022-07-23T12:15:10;1999.90;;;999.90;;
37321;SDS011;23697;48.684;9.032;2022-07-23T12:17:38;85.53;;;30.98;;
37321;SDS011;23697;48.684;9.032;2022-07-23T12:20:07;1501.35;;;129.30;;
37321;SDS011;23697;48.684;9.032;2022-07-23T12:22:37;1270.10;;;538.53;;
37321;SDS011;23697;48.684;9.032;2022-07-23T12:25:06;526.80;;;63.13;;
37321;SDS011;23697;48.684;9.032;2022-07-23T12:27:35;486.38;;;34.15;;
37321;SDS011;23697;48.684;9.032;2022-07-23T12:30:18;34.67;;;13.57;;
37321;SDS011;23697;48.684;9.032;2022-07-23T12:32:49;9.05;;;6.00;;
37321;SDS011;23697;48.684;9.032;2022-07-23T12:35:17;279.52;;;145.70;;
37321;SDS011;23697;48.684;9.032;2022-07-23T12:37:46;87.15;;;15.82;;
37321;SDS011;23697;48.684;9.032;2022-07-23T12:40:18;1766.38;;;322.05;;
37321;SDS011;23697;48.684;9.032;2022-07-23T12:42:56;802.65;;;304.25;;
37321;SDS011;23697;48.684;9.032;2022-07-23T12:45:25;96.38;;;20.40;;
37321;SDS011;23697;48.684;9.032;2022-07-23T12:47:54;46.67;;;17.25;;
37321;SDS011;23697;48.684;9.032;2022-07-23T12:50:34;7.57;;;5.80;;
37321;SDS011;23697;48.684;9.032;2022-07-23T12:53:06;574.38;;;41.20;;
37321;SDS011;23697;48.684;9.032;2022-07-23T12:55:35;7.15;;;5.55;;
37321;SDS011;23697;48.684;9.032;2022-07-23T12:58:07;7.53;;;5.90;;
37321;SDS011;23697;48.684;9.032;2022-07-23T13:00:50;7.65;;;5.95;;
37321;SDS011;23697;48.684;9.032;2022-07-23T13:06:07;332.63;;;29.50;;
37321;SDS011;23697;48.684;9.032;2022-07-23T13:08:35;6.38;;;5.47;;
37321;SDS011;23697;48.684;9.032;2022-07-23T13:11:04;150.98;;;27.60;;
37321;SDS011;23697;48.684;9.032;2022-07-23T13:13:34;149.85;;;26.60;;
37321;SDS011;23697;48.684;9.032;2022-07-23T13:16:02;82.18;;;16.23;;
37321;SDS011;23697;48.684;9.032;2022-07-23T13:18:29;6.90;;;5.55;;
37321;SDS011;23697;48.684;9.032;2022-07-23T13:20:56;123.43;;;19.40;;
37321;SDS011;23697;48.684;9.032;2022-07-23T13:23:23;7.75;;;5.97;;
37321;SDS011;23697;48.684;9.032;2022-07-23T13:25:51;9.27;;;5.82;;
37321;SDS011;23697;48.684;9.032;2022-07-23T13:28:19;7.70;;;5.78;;
37321;SDS011;23697;48.684;9.032;2022-07-23T13:30:48;7.85;;;7.05;;
37321;SDS011;23697;48.684;9.032;2022-07-23T13:33:16;9.13;;;5.63;;
37321;SDS011;23697;48.684;9.032;2022-07-23T13:35:43;9.32;;;5.78;;
37321;SDS011;23697;48.684;9.032;2022-07-23T13:38:10;9.48;;;5.88;;
37321;SDS011;23697;48.684;9.032;2022-07-23T13:40:41;407.30;;;41.17;;
37321;SDS011;23697;48.684;9.032;2022-07-23T13:43:09;8.85;;;5.97;;
37321;SDS011;23697;48.684;9.032;2022-07-23T13:45:37;9.23;;;5.80;;
37321;SDS011;23697;48.684;9.032;2022-07-23T13:48:06;8.23;;;5.90;;
37321;SDS011;23697;48.684;9.032;2022-07-23T13:50:33;7.85;;;5.93;;
37321;SDS011;23697;48.684;9.032;2022-07-23T13:53:01;6.78;;;5.68;;
37321;SDS011;23697;48.684;9.032;2022-07-23T13:55:30;9.68;;;5.95;;
37321;SDS011;23697;48.684;9.032;2022-07-23T13:57:57;8.73;;;6.20;;
37321;SDS011;23697;48.684;9.032;2022-07-23T14:00:25;12.18;;;10.50;;
37321;SDS011;23697;48.684;9.032;2022-07-23T14:06:38;7.47;;;5.78;;
37321;SDS011;23697;48.684;9.032;2022-07-23T14:09:25;297.42;;;42.00;;
37321;SDS011;23697;48.684;9.032;2022-07-23T14:11:55;4.60;;;3.33;;
37321;SDS011;23697;48.684;9.032;2022-07-23T14:14:23;5.70;;;3.33;;
37321;SDS011;23697;48.684;9.032;2022-07-23T14:16:54;5.35;;;3.58;;
37321;SDS011;23697;48.684;9.032;2022-07-23T14:19:30;5.78;;;3.75;;
37321;SDS011;23697;48.684;9.032;2022-07-23T14:21:59;5.05;;;3.58;;
37321;SDS011;23697;48.684;9.032;2022-07-23T14:24:25;4.07;;;3.08;;
37321;SDS011;23697;48.684;9.032;2022-07-23T14:26:52;5.25;;;3.72;;
37321;SDS011;23697;48.684;9.032;2022-07-23T14:29:19;6.72;;;3.90;;
37321;SDS011;23697;48.684;9.032;2022-07-23T14:31:46;6.38;;;3.80;;
37321;SDS011;23697;48.684;9.032;2022-07-23T14:34:13;5.60;;;3.55;;
37321;SDS011;23697;48.684;9.032;2022-07-23T14:36:41;9.48;;;6.85;;
37321;SDS011;23697;48.684;9.032;2022-07-23T14:39:14;8.15;;;3.53;;
37321;SDS011;23697;48.684;9.032;2022-07-23T14:44:12;524.05;;;101.43;;
37321;SDS011;23697;48.684;9.032;2022-07-23T14:46:43;7.05;;;4.75;;
37321;SDS011;23697;48.684;9.032;2022-07-23T14:49:10;7.15;;;4.78;;
37321;SDS011;23697;48.684;9.032;2022-07-23T14:51:40;6.85;;;4.55;;
37321;SDS011;23697;48.684;9.032;2022-07-23T14:54:13;6.88;;;4.45;;
37321;SDS011;23697;48.684;9.032;2022-07-23T14:56:40;6.47;;;4.50;;
37321;SDS011;23697;48.684;9.032;2022-07-23T14:59:08;7.05;;;4.75;;
37321;SDS011;23697;48.684;9.032;2022-07-23T15:01:38;567.35;;;38.63;;
37321;SDS011;23697;48.684;9.032;2022-07-23T15:04:06;325.40;;;19.15;;
37321;SDS011;23697;48.684;9.032;2022-07-23T15:06:32;90.38;;;21.00;;
37321;SDS011;23697;48.684;9.032;2022-07-23T15:09:00;226.70;;;19.70;;
37321;SDS011;23697;48.684;9.032;2022-07-23T15:11:28;132.50;;;21.60;;
37321;SDS011;23697;48.684;9.032;2022-07-23T15:13:58;9.23;;;5.57;;
37321;SDS011;23697;48.684;9.032;2022-07-23T15:16:25;37.10;;;5.97;;
37321;SDS011;23697;48.684;9.032;2022-07-23T15:18:52;7.13;;;4.90;;
37321;SDS011;23697;48.684;9.032;2022-07-23T15:21:19;7.40;;;5.13;;
37321;SDS011;23697;48.684;9.032;2022-07-23T15:23:47;6.32;;;4.57;;
37321;SDS011;23697;48.684;9.032;2022-07-23T15:26:14;7.00;;;4.68;;
37321;SDS011;23697;48.684;9.032;2022-07-23T15:28:44;8.43;;;4.72;;
37321;SDS011;23697;48.684;9.032;2022-07-23T15:31:11;10.70;;;4.78;;
37321;SDS011;23697;48.684;9.032;2022-07-23T15:33:38;7.45;;;4.53;;
37321;SDS011;23697;48.684;9.032;2022-07-23T15:36:05;8.32;;;4.55;;
37321;SDS011;23697;48.684;9.032;2022-07-23T15:38:32;218.90;;;18.65;;